createdAt,value
2022-10-22T00:00:22.367Z,13.26
2022-10-22T00:05:42.891Z,13.21
2022-10-22T00:11:21.814Z,13.15
2022-10-22T00:16:42.376Z,13.12
2022-10-22T00:22:05.811Z,13.06
2022-10-22T00:27:26.427Z,12.99
2022-10-22T00:32:46.784Z,12.91
2022-10-22T00:38:07.564Z,12.85
2022-10-22T00:43:28.283Z,12.70
2022-10-22T00:48:49.641Z,12.60
2022-10-22T00:54:10.803Z,12.54
2022-10-22T00:59:31.807Z,12.44
2022-10-22T01:04:52.602Z,12.34
2022-10-22T01:10:19.219Z,12.31
2022-10-22T01:15:53.764Z,12.20
2022-10-22T01:21:25.189Z,12.12
2022-10-22T01:27:10.813Z,12.09
2022-10-22T01:32:37.045Z,12.15
2022-10-22T01:38:03.643Z,12.15
2022-10-22T01:43:25.739Z,12.13
2022-10-22T01:49:25.496Z,11.96
2022-10-22T01:54:59.699Z,11.88
2022-10-22T02:00:20.709Z,11.87
2022-10-22T02:05:49.063Z,11.76
2022-10-22T02:11:12.743Z,11.76
2022-10-22T02:16:41.587Z,11.70
2022-10-22T02:22:02.926Z,11.66
2022-10-22T02:27:30.358Z,11.71
2022-10-22T02:33:08.542Z,11.68
2022-10-22T02:38:31.078Z,11.74
2022-10-22T02:43:54.970Z,11.83
2022-10-22T02:49:15.692Z,11.90
2022-10-22T02:54:36.559Z,11.99
2022-10-22T02:59:57.052Z,12.09
2022-10-22T03:05:18.296Z,12.17
2022-10-22T03:10:38.768Z,12.26
2022-10-22T03:15:59.699Z,12.29
2022-10-22T03:21:33.986Z,12.31
2022-10-22T03:26:54.641Z,12.38
2022-10-22T03:32:15.183Z,12.31
2022-10-22T03:37:37.613Z,12.19
2022-10-22T03:42:58.787Z,12.14
2022-10-22T03:48:19.632Z,12.07
2022-10-22T03:53:40.593Z,12.07
2022-10-22T03:59:02.251Z,12.14
2022-10-22T04:04:22.874Z,12.23
2022-10-22T04:09:43.675Z,12.25
2022-10-22T04:15:05.478Z,12.27
2022-10-22T04:20:27.910Z,12.23
2022-10-22T04:25:48.394Z,12.18
2022-10-22T04:31:18.482Z,12.11
2022-10-22T04:36:38.675Z,12.13
2022-10-22T04:41:59.167Z,12.14
2022-10-22T04:47:19.923Z,12.12
2022-10-22T04:52:40.675Z,12.08
2022-10-22T04:58:01.352Z,12.04
2022-10-22T05:03:21.577Z,12.01
2022-10-22T05:08:43.565Z,11.98
2022-10-22T05:14:06.092Z,12.00
2022-10-22T05:19:29.391Z,11.99
2022-10-22T05:24:50.252Z,12.01
2022-10-22T05:30:11.730Z,11.98
2022-10-22T05:35:32.729Z,12.02
2022-10-22T05:41:05.757Z,12.02
2022-10-22T05:46:29.570Z,12.07
2022-10-22T05:51:49.958Z,12.10
2022-10-22T05:57:10.743Z,12.08
2022-10-22T06:02:31.767Z,12.14
2022-10-22T06:07:52.687Z,12.12
2022-10-22T06:13:13.498Z,12.10
2022-10-22T06:18:34.712Z,12.06
2022-10-22T06:23:59.566Z,12.01
2022-10-22T06:29:20.521Z,12.02
2022-10-22T06:34:41.141Z,12.03
2022-10-22T06:40:01.311Z,12.03
2022-10-22T06:45:21.587Z,12.02
2022-10-22T06:50:42.020Z,12.06
2022-10-22T06:56:10.418Z,12.00
2022-10-22T07:01:33.581Z,11.98
2022-10-22T07:06:57.358Z,11.94
2022-10-22T07:12:17.823Z,11.96
2022-10-22T07:23:03.831Z,12.09
2022-10-22T07:28:25.147Z,12.25
2022-10-22T07:33:45.999Z,12.33
2022-10-22T07:39:06.667Z,12.55
2022-10-22T07:44:27.215Z,12.71
2022-10-22T07:49:47.566Z,12.88
2022-10-22T07:55:08.743Z,12.96
2022-10-22T08:00:29.229Z,13.02
2022-10-22T08:05:51.339Z,12.92
2022-10-22T08:11:12.078Z,12.99
2022-10-22T08:16:32.541Z,13.10
2022-10-22T08:21:53.315Z,13.30
2022-10-22T08:27:14.248Z,13.45
2022-10-22T08:32:34.581Z,13.67
2022-10-22T08:37:55.036Z,13.81
2022-10-22T08:43:41.742Z,13.79
2022-10-22T08:49:05.579Z,13.86
2022-10-22T08:54:43.182Z,14.00
2022-10-22T09:00:15.264Z,14.26
2022-10-22T09:06:13.326Z,14.22
2022-10-22T09:11:39.754Z,14.14
2022-10-22T09:17:28.612Z,14.30
2022-10-22T09:23:18.032Z,14.97
2022-10-22T09:28:38.732Z,15.98
2022-10-22T09:34:05.714Z,16.33
2022-10-22T09:46:56.910Z,17.16
2022-10-22T09:52:28.830Z,17.52
2022-10-22T09:57:58.299Z,18.20
2022-10-22T10:03:22.310Z,18.67
2022-10-22T10:08:42.929Z,21.37
2022-10-22T10:14:13.715Z,22.10
2022-10-22T10:19:43.435Z,22.12
2022-10-22T10:25:13.357Z,21.99
2022-10-22T10:30:44.639Z,22.67
2022-10-22T10:36:27.585Z,23.05
2022-10-22T10:42:06.722Z,23.23
2022-10-22T10:47:30.172Z,23.52
2022-10-22T10:53:03.714Z,23.87
2022-10-22T10:58:39.106Z,24.57
2022-10-22T11:04:21.154Z,24.92
2022-10-22T11:10:03.458Z,25.28
2022-10-22T11:15:37.749Z,25.17
2022-10-22T11:21:18.872Z,25.84
2022-10-22T11:27:05.391Z,21.37
2022-10-22T11:32:27.333Z,20.04
2022-10-22T11:37:49.252Z,18.58
2022-10-22T11:43:25.427Z,20.76
2022-10-22T11:49:01.928Z,23.47
2022-10-22T11:54:42.829Z,25.24
2022-10-22T12:00:28.289Z,27.24
2022-10-22T12:06:12.174Z,29.02
2022-10-22T12:11:37.647Z,28.06
2022-10-22T12:17:10.118Z,25.75
2022-10-22T12:22:32.902Z,20.41
2022-10-22T12:27:57.190Z,18.15
2022-10-22T12:33:22.756Z,17.06
2022-10-22T12:38:47.193Z,16.55
2022-10-22T12:44:10.919Z,16.25
2022-10-22T12:49:38.825Z,16.15
2022-10-22T12:54:59.618Z,15.89
2022-10-22T13:00:32.371Z,15.64
2022-10-22T13:05:52.979Z,15.47
2022-10-22T13:11:13.817Z,15.18
2022-10-22T13:22:00.288Z,14.68
2022-10-22T13:27:21.062Z,14.60
2022-10-22T13:32:42.019Z,14.52
2022-10-22T13:38:03.893Z,14.42
2022-10-22T13:43:32.212Z,14.39
2022-10-22T13:48:55.460Z,14.24
2022-10-22T13:54:22.646Z,14.13
2022-10-22T13:59:43.334Z,14.07
2022-10-22T14:05:08.572Z,14.04
2022-10-22T14:10:28.898Z,13.99
2022-10-22T14:15:53.183Z,13.96
2022-10-22T14:21:16.851Z,13.94
2022-10-22T14:26:37.366Z,13.96
2022-10-22T14:31:57.774Z,13.94
2022-10-22T14:37:20.526Z,13.90
2022-10-22T14:42:43.176Z,13.93
2022-10-22T14:48:04.260Z,13.93
2022-10-22T14:53:24.617Z,13.87
2022-10-22T14:58:46.592Z,13.80
2022-10-22T15:04:07.332Z,13.72
2022-10-22T15:09:27.852Z,13.66
2022-10-22T15:14:48.379Z,13.65
2022-10-22T15:20:09.887Z,13.64
2022-10-22T15:25:30.627Z,13.65
2022-10-22T15:30:59.628Z,13.63
2022-10-22T15:36:20.104Z,13.61
2022-10-22T15:41:40.975Z,13.62
2022-10-22T15:47:04.072Z,13.64
2022-10-22T15:52:25.436Z,13.66
2022-10-22T15:57:46.319Z,13.71
2022-10-22T16:03:07.684Z,13.74
2022-10-22T16:08:28.434Z,13.75
2022-10-22T16:13:53.792Z,13.75
2022-10-22T16:19:16.469Z,13.79
2022-10-22T16:24:40.901Z,13.80
2022-10-22T16:30:01.407Z,13.86
2022-10-22T16:35:22.260Z,13.87
2022-10-22T16:40:42.611Z,13.88
2022-10-22T16:46:04.033Z,13.94
2022-10-22T16:51:26.408Z,13.96
2022-10-22T16:56:47.080Z,13.96
2022-10-22T17:02:12.120Z,13.96
2022-10-22T17:07:32.785Z,13.99
2022-10-22T17:12:53.565Z,13.89
2022-10-22T17:18:14.456Z,13.82
2022-10-22T17:23:35.493Z,13.78
2022-10-22T17:28:56.141Z,13.69
2022-10-22T17:34:18.382Z,13.64
2022-10-22T17:39:39.596Z,13.57
2022-10-22T17:45:00.744Z,13.58
2022-10-22T17:50:21.646Z,13.62
2022-10-22T17:55:42.006Z,13.63
2022-10-22T18:01:03.281Z,13.65
2022-10-22T18:06:23.685Z,13.71
2022-10-22T18:11:44.910Z,13.75
2022-10-22T18:17:05.509Z,13.76
2022-10-22T18:22:26.676Z,13.80
2022-10-22T18:27:47.872Z,13.81
2022-10-22T18:33:11.795Z,13.80
2022-10-22T18:38:33.014Z,13.85
2022-10-22T18:44:02.273Z,13.79
2022-10-22T18:49:25.668Z,13.81
2022-10-22T18:54:46.277Z,13.82
2022-10-22T19:00:07.858Z,13.81
2022-10-22T19:05:28.723Z,13.85
2022-10-22T19:10:49.185Z,13.82
2022-10-22T19:16:18.374Z,13.78
2022-10-22T19:21:39.191Z,13.81
2022-10-22T19:26:59.664Z,13.84
2022-10-22T19:32:20.993Z,13.84
2022-10-22T19:37:46.187Z,13.84
2022-10-22T19:43:08.943Z,13.86
2022-10-22T19:48:29.976Z,13.89
2022-10-22T19:53:51.037Z,13.91
2022-10-22T19:59:12.166Z,13.86
2022-10-22T20:04:32.625Z,13.90
2022-10-22T20:09:53.755Z,13.96
2022-10-22T20:15:14.259Z,13.96
2022-10-22T20:20:38.142Z,13.92
2022-10-22T20:25:58.496Z,13.90
2022-10-22T20:31:21.330Z,13.77
2022-10-22T20:36:41.923Z,13.64
2022-10-22T20:42:02.726Z,13.53
2022-10-22T20:47:30.394Z,13.46
2022-10-22T20:53:00.076Z,13.42
2022-10-22T20:58:24.461Z,13.39
2022-10-22T21:03:51.996Z,13.33
2022-10-22T21:09:14.555Z,13.25
2022-10-22T21:14:35.370Z,13.20
2022-10-22T21:19:56.441Z,13.16
2022-10-22T21:25:17.239Z,13.09
2022-10-22T21:30:44.743Z,13.02
2022-10-22T21:36:06.894Z,12.99
2022-10-22T21:41:27.408Z,12.93
2022-10-22T21:46:47.939Z,12.87
2022-10-22T21:52:09.047Z,12.84
2022-10-22T21:57:29.970Z,12.83
2022-10-22T22:02:50.936Z,12.81
2022-10-22T22:08:11.441Z,12.79
2022-10-22T22:13:33.613Z,12.75
2022-10-22T22:18:55.488Z,12.77
2022-10-22T22:24:16.644Z,12.76
2022-10-22T22:29:37.257Z,12.75
2022-10-22T22:34:58.512Z,12.73
2022-10-22T22:40:19.310Z,12.68
2022-10-22T22:45:40.754Z,12.61
2022-10-22T22:51:03.224Z,12.55
2022-10-22T22:56:25.546Z,12.53
2022-10-22T23:01:48.175Z,12.49
2022-10-22T23:07:08.723Z,12.47
2022-10-22T23:12:29.232Z,12.44
2022-10-22T23:17:50.090Z,12.41
2022-10-22T23:23:10.597Z,12.36
2022-10-22T23:28:31.214Z,12.33
2022-10-22T23:33:52.123Z,12.26
2022-10-22T23:39:15.856Z,12.22
2022-10-22T23:44:36.453Z,12.21
2022-10-22T23:49:57.058Z,12.19
2022-10-22T23:55:19.163Z,12.16
